sensor_id;sensor_type;location;lat;lon;timestamp;P1;durP1;ratioP1;P2;durP2;ratioP2
83143;SDS011;73035;43.768;2.230;2024-01-11T00:01:59;32.33;;;18.75;;
83143;SDS011;73035;43.768;2.230;2024-01-11T00:04:24;26.10;;;15.55;;
83143;SDS011;73035;43.768;2.230;2024-01-11T00:06:51;31.83;;;17.90;;
83143;SDS011;73035;43.768;2.230;2024-01-11T00:09:16;19.23;;;11.45;;
83143;SDS011;73035;43.768;2.230;2024-01-11T00:11:41;17.73;;;10.90;;
83143;SDS011;73035;43.768;2.230;2024-01-11T00:14:07;16.02;;;10.25;;
83143;SDS011;73035;43.768;2.230;2024-01-11T00:16:32;18.38;;;10.65;;
83143;SDS011;73035;43.768;2.230;2024-01-11T00:18:58;15.52;;;9.20;;
83143;SDS011;73035;43.768;2.230;2024-01-11T00:21:23;15.45;;;9.90;;
83143;SDS011;73035;43.768;2.230;2024-01-11T00:23:49;16.90;;;8.98;;
83143;SDS011;73035;43.768;2.230;2024-01-11T00:26:14;14.80;;;9.43;;
83143;SDS011;73035;43.768;2.230;2024-01-11T00:28:40;16.15;;;10.18;;
83143;SDS011;73035;43.768;2.230;2024-01-11T00:31:05;16.50;;;9.98;;
83143;SDS011;73035;43.768;2.230;2024-01-11T00:33:30;17.10;;;10.40;;
83143;SDS011;73035;43.768;2.230;2024-01-11T00:35:56;17.77;;;11.45;;
83143;SDS011;73035;43.768;2.230;2024-01-11T00:38:21;18.45;;;10.68;;
83143;SDS011;73035;43.768;2.230;2024-01-11T00:40:47;16.02;;;10.38;;
83143;SDS011;73035;43.768;2.230;2024-01-11T00:43:12;22.92;;;12.18;;
83143;SDS011;73035;43.768;2.230;2024-01-11T00:45:37;19.58;;;11.90;;
83143;SDS011;73035;43.768;2.230;2024-01-11T00:48:03;16.58;;;11.02;;
83143;SDS011;73035;43.768;2.230;2024-01-11T00:50:29;22.35;;;13.07;;
83143;SDS011;73035;43.768;2.230;2024-01-11T00:52:54;19.73;;;11.30;;
83143;SDS011;73035;43.768;2.230;2024-01-11T00:55:20;17.83;;;11.32;;
83143;SDS011;73035;43.768;2.230;2024-01-11T00:57:45;24.63;;;13.18;;
83143;SDS011;73035;43.768;2.230;2024-01-11T01:00:11;21.95;;;13.75;;
83143;SDS011;73035;43.768;2.230;2024-01-11T01:02:40;21.63;;;13.02;;
83143;SDS011;73035;43.768;2.230;2024-01-11T01:05:05;19.50;;;12.68;;
83143;SDS011;73035;43.768;2.230;2024-01-11T01:07:31;17.80;;;10.48;;
83143;SDS011;73035;43.768;2.230;2024-01-11T01:09:57;18.98;;;11.40;;
83143;SDS011;73035;43.768;2.230;2024-01-11T01:12:22;18.77;;;11.88;;
83143;SDS011;73035;43.768;2.230;2024-01-11T01:14:49;22.98;;;14.20;;
83143;SDS011;73035;43.768;2.230;2024-01-11T01:17:15;18.35;;;11.73;;
83143;SDS011;73035;43.768;2.230;2024-01-11T01:19:40;18.60;;;11.48;;
83143;SDS011;73035;43.768;2.230;2024-01-11T01:22:06;16.63;;;11.02;;
83143;SDS011;73035;43.768;2.230;2024-01-11T01:24:31;18.05;;;11.55;;
83143;SDS011;73035;43.768;2.230;2024-01-11T01:26:57;17.98;;;10.55;;
83143;SDS011;73035;43.768;2.230;2024-01-11T01:29:22;19.25;;;11.73;;
83143;SDS011;73035;43.768;2.230;2024-01-11T01:31:47;32.20;;;20.65;;
83143;SDS011;73035;43.768;2.230;2024-01-11T01:34:13;21.40;;;11.70;;
83143;SDS011;73035;43.768;2.230;2024-01-11T01:36:40;20.77;;;12.68;;
83143;SDS011;73035;43.768;2.230;2024-01-11T01:39:05;18.73;;;12.80;;
83143;SDS011;73035;43.768;2.230;2024-01-11T01:41:30;18.88;;;11.73;;
83143;SDS011;73035;43.768;2.230;2024-01-11T01:43:56;19.58;;;11.80;;
83143;SDS011;73035;43.768;2.230;2024-01-11T01:46:23;15.32;;;10.32;;
83143;SDS011;73035;43.768;2.230;2024-01-11T01:48:49;16.75;;;9.90;;
83143;SDS011;73035;43.768;2.230;2024-01-11T01:51:15;17.58;;;10.90;;
83143;SDS011;73035;43.768;2.230;2024-01-11T01:53:40;19.73;;;11.32;;
83143;SDS011;73035;43.768;2.230;2024-01-11T01:56:06;16.77;;;10.38;;
83143;SDS011;73035;43.768;2.230;2024-01-11T01:58:32;21.63;;;12.32;;
83143;SDS011;73035;43.768;2.230;2024-01-11T02:00:58;16.48;;;10.73;;
83143;SDS011;73035;43.768;2.230;2024-01-11T02:03:24;17.52;;;11.05;;
83143;SDS011;73035;43.768;2.230;2024-01-11T02:05:49;17.83;;;11.18;;
83143;SDS011;73035;43.768;2.230;2024-01-11T02:08:16;16.30;;;10.55;;
83143;SDS011;73035;43.768;2.230;2024-01-11T02:10:44;17.30;;;9.88;;
83143;SDS011;73035;43.768;2.230;2024-01-11T02:13:10;15.02;;;9.55;;
83143;SDS011;73035;43.768;2.230;2024-01-11T02:15:36;16.38;;;9.77;;
83143;SDS011;73035;43.768;2.230;2024-01-11T02:18:02;17.42;;;9.63;;
83143;SDS011;73035;43.768;2.230;2024-01-11T02:20:27;15.95;;;10.25;;
83143;SDS011;73035;43.768;2.230;2024-01-11T02:22:53;16.67;;;9.30;;
83143;SDS011;73035;43.768;2.230;2024-01-11T02:25:21;15.93;;;9.35;;
83143;SDS011;73035;43.768;2.230;2024-01-11T02:27:50;14.48;;;9.13;;
83143;SDS011;73035;43.768;2.230;2024-01-11T02:30:15;16.77;;;10.52;;
83143;SDS011;73035;43.768;2.230;2024-01-11T02:32:43;19.40;;;11.07;;
83143;SDS011;73035;43.768;2.230;2024-01-11T02:35:09;15.43;;;9.18;;
83143;SDS011;73035;43.768;2.230;2024-01-11T02:37:35;15.63;;;9.23;;
83143;SDS011;73035;43.768;2.230;2024-01-11T02:40:01;16.98;;;10.40;;
83143;SDS011;73035;43.768;2.230;2024-01-11T02:42:27;16.27;;;10.65;;
83143;SDS011;73035;43.768;2.230;2024-01-11T02:44:52;15.05;;;9.50;;
83143;SDS011;73035;43.768;2.230;2024-01-11T02:47:18;16.55;;;10.02;;
83143;SDS011;73035;43.768;2.230;2024-01-11T02:49:43;15.05;;;9.77;;
83143;SDS011;73035;43.768;2.230;2024-01-11T02:52:09;15.85;;;10.90;;
83143;SDS011;73035;43.768;2.230;2024-01-11T02:54:34;17.15;;;10.27;;
83143;SDS011;73035;43.768;2.230;2024-01-11T02:56:59;15.45;;;10.25;;
83143;SDS011;73035;43.768;2.230;2024-01-11T02:59:25;16.85;;;11.13;;
83143;SDS011;73035;43.768;2.230;2024-01-11T03:01:50;15.38;;;10.30;;
83143;SDS011;73035;43.768;2.230;2024-01-11T03:04:15;16.65;;;10.35;;
83143;SDS011;73035;43.768;2.230;2024-01-11T03:06:41;16.92;;;10.70;;
83143;SDS011;73035;43.768;2.230;2024-01-11T03:09:07;18.38;;;9.93;;
83143;SDS011;73035;43.768;2.230;2024-01-11T03:11:32;19.42;;;11.45;;
83143;SDS011;73035;43.768;2.230;2024-01-11T03:13:58;15.55;;;10.38;;
83143;SDS011;73035;43.768;2.230;2024-01-11T03:16:23;13.63;;;9.82;;
83143;SDS011;73035;43.768;2.230;2024-01-11T03:18:48;17.17;;;10.30;;
83143;SDS011;73035;43.768;2.230;2024-01-11T03:21:14;14.02;;;9.32;;
83143;SDS011;73035;43.768;2.230;2024-01-11T03:23:39;16.15;;;10.38;;
83143;SDS011;73035;43.768;2.230;2024-01-11T03:26:11;14.63;;;9.60;;
83143;SDS011;73035;43.768;2.230;2024-01-11T03:28:38;14.00;;;8.02;;
83143;SDS011;73035;43.768;2.230;2024-01-11T03:31:03;14.50;;;9.05;;
83143;SDS011;73035;43.768;2.230;2024-01-11T03:33:28;12.93;;;8.95;;
83143;SDS011;73035;43.768;2.230;2024-01-11T03:35:54;12.68;;;8.48;;
83143;SDS011;73035;43.768;2.230;2024-01-11T03:38:19;14.73;;;9.25;;
83143;SDS011;73035;43.768;2.230;2024-01-11T03:40:44;12.65;;;7.97;;
83143;SDS011;73035;43.768;2.230;2024-01-11T03:43:10;13.52;;;8.38;;
83143;SDS011;73035;43.768;2.230;2024-01-11T03:45:35;12.23;;;7.30;;
83143;SDS011;73035;43.768;2.230;2024-01-11T03:48:00;13.18;;;8.77;;
83143;SDS011;73035;43.768;2.230;2024-01-11T03:50:26;12.93;;;8.38;;
83143;SDS011;73035;43.768;2.230;2024-01-11T03:52:51;12.05;;;7.68;;
83143;SDS011;73035;43.768;2.230;2024-01-11T03:55:16;14.50;;;8.25;;
83143;SDS011;73035;43.768;2.230;2024-01-11T03:57:41;11.32;;;7.50;;
83143;SDS011;73035;43.768;2.230;2024-01-11T04:00:09;12.32;;;7.70;;
83143;SDS011;73035;43.768;2.230;2024-01-11T04:02:35;13.68;;;7.68;;
83143;SDS011;73035;43.768;2.230;2024-01-11T04:05:00;10.38;;;7.82;;
83143;SDS011;73035;43.768;2.230;2024-01-11T04:07:26;13.18;;;8.13;;
83143;SDS011;73035;43.768;2.230;2024-01-11T04:09:51;10.55;;;6.65;;
83143;SDS011;73035;43.768;2.230;2024-01-11T04:12:16;10.88;;;6.97;;
83143;SDS011;73035;43.768;2.230;2024-01-11T04:14:42;12.00;;;7.20;;
83143;SDS011;73035;43.768;2.230;2024-01-11T04:17:07;9.48;;;6.50;;
83143;SDS011;73035;43.768;2.230;2024-01-11T04:19:32;7.88;;;6.10;;
83143;SDS011;73035;43.768;2.230;2024-01-11T04:21:58;9.95;;;7.03;;
83143;SDS011;73035;43.768;2.230;2024-01-11T04:24:23;8.63;;;6.38;;
83143;SDS011;73035;43.768;2.230;2024-01-11T04:26:49;8.95;;;5.88;;
83143;SDS011;73035;43.768;2.230;2024-01-11T04:29:14;9.07;;;6.53;;
83143;SDS011;73035;43.768;2.230;2024-01-11T04:31:39;7.72;;;5.13;;
83143;SDS011;73035;43.768;2.230;2024-01-11T04:34:05;9.52;;;5.85;;
83143;SDS011;73035;43.768;2.230;2024-01-11T04:36:30;10.70;;;6.50;;
83143;SDS011;73035;43.768;2.230;2024-01-11T04:38:56;9.52;;;6.47;;
83143;SDS011;73035;43.768;2.230;2024-01-11T04:41:21;7.72;;;6.18;;
83143;SDS011;73035;43.768;2.230;2024-01-11T04:43:47;8.73;;;6.20;;
83143;SDS011;73035;43.768;2.230;2024-01-11T04:46:22;7.60;;;5.68;;
83143;SDS011;73035;43.768;2.230;2024-01-11T04:48:48;7.07;;;5.30;;
83143;SDS011;73035;43.768;2.230;2024-01-11T04:51:14;6.75;;;4.93;;
83143;SDS011;73035;43.768;2.230;2024-01-11T04:53:40;8.48;;;5.22;;
83143;SDS011;73035;43.768;2.230;2024-01-11T04:56:06;7.28;;;5.00;;
83143;SDS011;73035;43.768;2.230;2024-01-11T04:58:32;8.05;;;4.70;;
83143;SDS011;73035;43.768;2.230;2024-01-11T05:00:58;6.65;;;5.07;;
83143;SDS011;73035;43.768;2.230;2024-01-11T05:03:23;6.00;;;4.40;;
83143;SDS011;73035;43.768;2.230;2024-01-11T05:05:49;6.82;;;4.65;;
83143;SDS011;73035;43.768;2.230;2024-01-11T05:08:14;6.15;;;4.68;;
83143;SDS011;73035;43.768;2.230;2024-01-11T05:10:39;9.50;;;4.32;;
83143;SDS011;73035;43.768;2.230;2024-01-11T05:13:05;5.68;;;4.65;;
83143;SDS011;73035;43.768;2.230;2024-01-11T05:15:30;6.88;;;5.13;;
83143;SDS011;73035;43.768;2.230;2024-01-11T05:17:55;5.75;;;4.72;;
83143;SDS011;73035;43.768;2.230;2024-01-11T05:20:24;7.18;;;4.50;;
83143;SDS011;73035;43.768;2.230;2024-01-11T05:22:49;6.40;;;4.07;;
83143;SDS011;73035;43.768;2.230;2024-01-11T05:25:14;5.90;;;4.32;;
83143;SDS011;73035;43.768;2.230;2024-01-11T05:27:40;6.00;;;3.85;;
83143;SDS011;73035;43.768;2.230;2024-01-11T05:30:05;5.30;;;4.25;;
83143;SDS011;73035;43.768;2.230;2024-01-11T05:32:31;5.38;;;3.88;;
83143;SDS011;73035;43.768;2.230;2024-01-11T05:34:56;5.90;;;3.95;;
83143;SDS011;73035;43.768;2.230;2024-01-11T05:37:22;6.15;;;3.92;;
83143;SDS011;73035;43.768;2.230;2024-01-11T05:39:47;5.03;;;3.60;;
83143;SDS011;73035;43.768;2.230;2024-01-11T05:42:12;7.18;;;4.63;;
83143;SDS011;73035;43.768;2.230;2024-01-11T05:44:38;4.82;;;3.65;;
83143;SDS011;73035;43.768;2.230;2024-01-11T05:47:03;5.60;;;4.13;;
83143;SDS011;73035;43.768;2.230;2024-01-11T05:49:29;4.70;;;3.30;;
83143;SDS011;73035;43.768;2.230;2024-01-11T05:51:54;5.15;;;3.60;;
83143;SDS011;73035;43.768;2.230;2024-01-11T05:54:20;4.55;;;3.47;;
83143;SDS011;73035;43.768;2.230;2024-01-11T05:56:45;6.03;;;4.10;;
83143;SDS011;73035;43.768;2.230;2024-01-11T05:59:10;5.50;;;3.22;;
83143;SDS011;73035;43.768;2.230;2024-01-11T06:01:42;5.40;;;3.60;;
83143;SDS011;73035;43.768;2.230;2024-01-11T06:04:08;5.95;;;3.83;;
83143;SDS011;73035;43.768;2.230;2024-01-11T06:06:33;6.53;;;3.95;;
83143;SDS011;73035;43.768;2.230;2024-01-11T06:08:58;7.03;;;4.53;;
83143;SDS011;73035;43.768;2.230;2024-01-11T06:11:24;6.35;;;4.38;;
83143;SDS011;73035;43.768;2.230;2024-01-11T06:13:49;5.45;;;3.83;;
83143;SDS011;73035;43.768;2.230;2024-01-11T06:16:14;5.65;;;3.80;;
83143;SDS011;73035;43.768;2.230;2024-01-11T06:18:40;5.57;;;3.97;;
83143;SDS011;73035;43.768;2.230;2024-01-11T06:21:05;5.28;;;3.55;;
83143;SDS011;73035;43.768;2.230;2024-01-11T06:23:30;5.35;;;3.60;;
83143;SDS011;73035;43.768;2.230;2024-01-11T06:25:56;5.30;;;3.67;;
83143;SDS011;73035;43.768;2.230;2024-01-11T06:28:21;5.32;;;3.60;;
83143;SDS011;73035;43.768;2.230;2024-01-11T06:30:46;5.30;;;3.85;;
83143;SDS011;73035;43.768;2.230;2024-01-11T06:33:12;5.50;;;4.30;;
83143;SDS011;73035;43.768;2.230;2024-01-11T06:35:37;5.55;;;3.65;;
83143;SDS011;73035;43.768;2.230;2024-01-11T06:38:03;5.05;;;3.63;;
83143;SDS011;73035;43.768;2.230;2024-01-11T06:40:28;4.43;;;3.58;;
83143;SDS011;73035;43.768;2.230;2024-01-11T06:42:54;5.78;;;4.22;;
83143;SDS011;73035;43.768;2.230;2024-01-11T06:45:19;4.60;;;3.58;;
83143;SDS011;73035;43.768;2.230;2024-01-11T06:47:45;5.18;;;3.55;;
83143;SDS011;73035;43.768;2.230;2024-01-11T06:50:14;5.78;;;3.85;;
83143;SDS011;73035;43.768;2.230;2024-01-11T06:52:39;4.43;;;3.30;;
83143;SDS011;73035;43.768;2.230;2024-01-11T06:55:05;4.97;;;3.75;;
83143;SDS011;73035;43.768;2.230;2024-01-11T06:57:30;5.75;;;3.42;;
83143;SDS011;73035;43.768;2.230;2024-01-11T06:59:56;4.35;;;3.70;;
83143;SDS011;73035;43.768;2.230;2024-01-11T07:02:21;5.28;;;3.83;;
83143;SDS011;73035;43.768;2.230;2024-01-11T07:04:47;4.20;;;3.40;;
83143;SDS011;73035;43.768;2.230;2024-01-11T07:07:12;5.00;;;3.53;;
83143;SDS011;73035;43.768;2.230;2024-01-11T07:09:37;4.50;;;3.22;;
83143;SDS011;73035;43.768;2.230;2024-01-11T07:12:03;4.80;;;3.55;;
83143;SDS011;73035;43.768;2.230;2024-01-11T07:14:30;4.78;;;3.67;;
83143;SDS011;73035;43.768;2.230;2024-01-11T07:16:55;6.22;;;4.50;;
83143;SDS011;73035;43.768;2.230;2024-01-11T07:19:20;5.03;;;3.72;;
83143;SDS011;73035;43.768;2.230;2024-01-11T07:21:47;4.93;;;3.10;;
83143;SDS011;73035;43.768;2.230;2024-01-11T07:24:12;6.55;;;4.07;;
83143;SDS011;73035;43.768;2.230;2024-01-11T07:26:37;6.20;;;4.20;;
83143;SDS011;73035;43.768;2.230;2024-01-11T07:29:03;5.22;;;4.00;;
83143;SDS011;73035;43.768;2.230;2024-01-11T07:31:28;5.15;;;3.92;;
83143;SDS011;73035;43.768;2.230;2024-01-11T07:33:54;4.13;;;3.22;;
83143;SDS011;73035;43.768;2.230;2024-01-11T07:36:19;5.13;;;3.40;;
83143;SDS011;73035;43.768;2.230;2024-01-11T07:38:45;4.25;;;3.35;;
83143;SDS011;73035;43.768;2.230;2024-01-11T07:41:10;3.95;;;3.00;;
83143;SDS011;73035;43.768;2.230;2024-01-11T07:46:02;5.25;;;2.92;;
83143;SDS011;73035;43.768;2.230;2024-01-11T07:48:28;3.70;;;2.92;;
83143;SDS011;73035;43.768;2.230;2024-01-11T07:50:54;4.50;;;3.50;;
83143;SDS011;73035;43.768;2.230;2024-01-11T07:53:19;4.88;;;3.42;;
83143;SDS011;73035;43.768;2.230;2024-01-11T07:55:45;4.60;;;3.35;;
83143;SDS011;73035;43.768;2.230;2024-01-11T07:58:12;5.25;;;3.42;;
83143;SDS011;73035;43.768;2.230;2024-01-11T08:00:38;5.10;;;4.03;;
83143;SDS011;73035;43.768;2.230;2024-01-11T08:03:04;6.15;;;4.22;;
83143;SDS011;73035;43.768;2.230;2024-01-11T08:05:29;7.20;;;5.00;;
83143;SDS011;73035;43.768;2.230;2024-01-11T08:07:55;5.05;;;3.53;;
83143;SDS011;73035;43.768;2.230;2024-01-11T08:10:20;5.25;;;3.65;;
83143;SDS011;73035;43.768;2.230;2024-01-11T08:12:45;4.07;;;2.90;;
83143;SDS011;73035;43.768;2.230;2024-01-11T08:15:11;4.15;;;3.33;;
83143;SDS011;73035;43.768;2.230;2024-01-11T08:20:03;3.92;;;2.63;;
83143;SDS011;73035;43.768;2.230;2024-01-11T08:22:29;5.10;;;3.25;;
83143;SDS011;73035;43.768;2.230;2024-01-11T08:24:58;3.90;;;3.10;;
83143;SDS011;73035;43.768;2.230;2024-01-11T08:27:24;6.45;;;3.58;;
83143;SDS011;73035;43.768;2.230;2024-01-11T08:29:49;4.63;;;3.13;;
83143;SDS011;73035;43.768;2.230;2024-01-11T08:32:14;4.70;;;3.20;;
83143;SDS011;73035;43.768;2.230;2024-01-11T08:34:42;4.22;;;3.15;;
83143;SDS011;73035;43.768;2.230;2024-01-11T08:37:07;42.45;;;18.23;;
83143;SDS011;73035;43.768;2.230;2024-01-11T08:39:32;4.78;;;3.70;;
83143;SDS011;73035;43.768;2.230;2024-01-11T08:44:24;5.13;;;3.77;;
83143;SDS011;73035;43.768;2.230;2024-01-11T08:46:49;5.43;;;3.63;;
83143;SDS011;73035;43.768;2.230;2024-01-11T08:49:15;4.22;;;3.17;;
83143;SDS011;73035;43.768;2.230;2024-01-11T08:51:40;6.30;;;4.45;;
83143;SDS011;73035;43.768;2.230;2024-01-11T08:54:06;6.90;;;4.35;;
83143;SDS011;73035;43.768;2.230;2024-01-11T08:56:34;4.75;;;3.95;;
83143;SDS011;73035;43.768;2.230;2024-01-11T08:59:00;4.82;;;3.88;;
83143;SDS011;73035;43.768;2.230;2024-01-11T09:01:25;5.30;;;3.58;;
83143;SDS011;73035;43.768;2.230;2024-01-11T09:03:51;5.38;;;4.43;;
83143;SDS011;73035;43.768;2.230;2024-01-11T09:06:16;7.40;;;4.97;;
83143;SDS011;73035;43.768;2.230;2024-01-11T09:08:42;6.22;;;4.78;;
83143;SDS011;73035;43.768;2.230;2024-01-11T09:11:07;5.30;;;4.43;;
83143;SDS011;73035;43.768;2.230;2024-01-11T09:13:33;7.82;;;7.03;;
83143;SDS011;73035;43.768;2.230;2024-01-11T09:15:58;8.73;;;6.88;;
83143;SDS011;73035;43.768;2.230;2024-01-11T09:18:23;5.00;;;3.65;;
83143;SDS011;73035;43.768;2.230;2024-01-11T09:20:49;10.13;;;5.20;;
83143;SDS011;73035;43.768;2.230;2024-01-11T09:23:14;6.13;;;4.03;;
83143;SDS011;73035;43.768;2.230;2024-01-11T09:25:40;5.03;;;3.78;;
83143;SDS011;73035;43.768;2.230;2024-01-11T09:28:05;6.22;;;4.30;;
83143;SDS011;73035;43.768;2.230;2024-01-11T09:30:31;16.70;;;8.85;;
83143;SDS011;73035;43.768;2.230;2024-01-11T09:32:56;7.25;;;5.20;;
83143;SDS011;73035;43.768;2.230;2024-01-11T09:35:22;7.35;;;5.82;;
83143;SDS011;73035;43.768;2.230;2024-01-11T09:37:48;5.80;;;4.53;;
83143;SDS011;73035;43.768;2.230;2024-01-11T09:40:17;6.70;;;4.30;;
83143;SDS011;73035;43.768;2.230;2024-01-11T09:45:14;5.53;;;3.97;;
83143;SDS011;73035;43.768;2.230;2024-01-11T09:47:41;4.35;;;3.50;;
83143;SDS011;73035;43.768;2.230;2024-01-11T09:50:07;6.30;;;4.15;;
83143;SDS011;73035;43.768;2.230;2024-01-11T09:52:33;4.35;;;3.33;;
83143;SDS011;73035;43.768;2.230;2024-01-11T09:55:01;5.28;;;3.60;;
83143;SDS011;73035;43.768;2.230;2024-01-11T09:57:31;5.07;;;3.65;;
83143;SDS011;73035;43.768;2.230;2024-01-11T09:59:57;5.20;;;3.40;;
83143;SDS011;73035;43.768;2.230;2024-01-11T10:02:23;5.90;;;3.88;;
83143;SDS011;73035;43.768;2.230;2024-01-11T10:04:52;6.45;;;3.60;;
83143;SDS011;73035;43.768;2.230;2024-01-11T10:07:18;7.90;;;4.43;;
83143;SDS011;73035;43.768;2.230;2024-01-11T10:09:46;5.63;;;4.00;;
83143;SDS011;73035;43.768;2.230;2024-01-11T10:12:12;5.80;;;3.80;;
83143;SDS011;73035;43.768;2.230;2024-01-11T10:14:38;6.50;;;3.95;;
83143;SDS011;73035;43.768;2.230;2024-01-11T10:17:03;4.32;;;3.33;;
83143;SDS011;73035;43.768;2.230;2024-01-11T10:19:29;5.25;;;3.67;;
83143;SDS011;73035;43.768;2.230;2024-01-11T10:21:55;5.85;;;3.70;;
83143;SDS011;73035;43.768;2.230;2024-01-11T10:24:20;5.05;;;3.25;;
83143;SDS011;73035;43.768;2.230;2024-01-11T10:26:47;5.38;;;3.45;;
83143;SDS011;73035;43.768;2.230;2024-01-11T10:29:12;6.70;;;2.95;;
83143;SDS011;73035;43.768;2.230;2024-01-11T10:31:38;9.30;;;3.17;;
83143;SDS011;73035;43.768;2.230;2024-01-11T10:34:04;5.07;;;3.40;;
83143;SDS011;73035;43.768;2.230;2024-01-11T10:36:32;7.50;;;5.32;;
83143;SDS011;73035;43.768;2.230;2024-01-11T10:38:59;6.00;;;3.72;;
83143;SDS011;73035;43.768;2.230;2024-01-11T10:41:29;5.00;;;3.42;;
83143;SDS011;73035;43.768;2.230;2024-01-11T10:43:58;5.20;;;3.60;;
83143;SDS011;73035;43.768;2.230;2024-01-11T10:46:25;5.32;;;3.85;;
83143;SDS011;73035;43.768;2.230;2024-01-11T10:48:52;5.88;;;3.92;;
83143;SDS011;73035;43.768;2.230;2024-01-11T10:51:21;6.93;;;5.00;;
83143;SDS011;73035;43.768;2.230;2024-01-11T10:53:47;7.60;;;4.40;;
83143;SDS011;73035;43.768;2.230;2024-01-11T10:56:16;5.35;;;3.95;;
83143;SDS011;73035;43.768;2.230;2024-01-11T10:58:42;5.38;;;3.63;;
83143;SDS011;73035;43.768;2.230;2024-01-11T11:01:11;5.15;;;3.35;;
83143;SDS011;73035;43.768;2.230;2024-01-11T11:03:37;5.35;;;3.65;;
83143;SDS011;73035;43.768;2.230;2024-01-11T11:06:06;5.97;;;3.80;;
83143;SDS011;73035;43.768;2.230;2024-01-11T11:08:33;5.07;;;3.08;;
83143;SDS011;73035;43.768;2.230;2024-01-11T11:10:59;5.65;;;4.05;;
83143;SDS011;73035;43.768;2.230;2024-01-11T11:13:28;5.63;;;3.60;;
83143;SDS011;73035;43.768;2.230;2024-01-11T11:15:54;5.13;;;4.00;;
83143;SDS011;73035;43.768;2.230;2024-01-11T11:18:22;5.75;;;3.65;;
83143;SDS011;73035;43.768;2.230;2024-01-11T11:20:48;5.18;;;3.92;;
83143;SDS011;73035;43.768;2.230;2024-01-11T11:25:42;12.48;;;7.80;;
83143;SDS011;73035;43.768;2.230;2024-01-11T11:28:08;9.95;;;6.65;;
83143;SDS011;73035;43.768;2.230;2024-01-11T11:30:36;7.43;;;4.80;;
83143;SDS011;73035;43.768;2.230;2024-01-11T11:35:35;9.65;;;6.07;;
83143;SDS011;73035;43.768;2.230;2024-01-11T11:38:00;8.05;;;4.90;;
83143;SDS011;73035;43.768;2.230;2024-01-11T11:40:37;9.02;;;5.30;;
83143;SDS011;73035;43.768;2.230;2024-01-11T11:43:07;9.15;;;5.40;;
83143;SDS011;73035;43.768;2.230;2024-01-11T11:45:33;10.82;;;6.78;;
83143;SDS011;73035;43.768;2.230;2024-01-11T11:47:59;10.23;;;6.15;;
83143;SDS011;73035;43.768;2.230;2024-01-11T11:50:24;9.90;;;6.10;;
83143;SDS011;73035;43.768;2.230;2024-01-11T11:52:56;9.70;;;5.88;;
83143;SDS011;73035;43.768;2.230;2024-01-11T11:55:22;9.20;;;5.28;;
83143;SDS011;73035;43.768;2.230;2024-01-11T11:57:49;10.95;;;6.65;;
83143;SDS011;73035;43.768;2.230;2024-01-11T12:00:16;10.18;;;5.68;;
83143;SDS011;73035;43.768;2.230;2024-01-11T12:02:41;10.40;;;6.03;;
83143;SDS011;73035;43.768;2.230;2024-01-11T12:05:07;10.45;;;6.15;;
83143;SDS011;73035;43.768;2.230;2024-01-11T12:07:32;9.43;;;5.78;;
83143;SDS011;73035;43.768;2.230;2024-01-11T12:09:58;9.45;;;6.43;;
83143;SDS011;73035;43.768;2.230;2024-01-11T12:12:23;12.95;;;8.65;;
83143;SDS011;73035;43.768;2.230;2024-01-11T12:14:49;10.50;;;6.45;;
83143;SDS011;73035;43.768;2.230;2024-01-11T12:17:15;10.82;;;6.47;;
83143;SDS011;73035;43.768;2.230;2024-01-11T12:19:41;9.52;;;5.85;;
83143;SDS011;73035;43.768;2.230;2024-01-11T12:22:07;10.98;;;6.75;;
83143;SDS011;73035;43.768;2.230;2024-01-11T12:24:32;9.90;;;5.45;;
83143;SDS011;73035;43.768;2.230;2024-01-11T12:27:01;8.45;;;5.60;;
83143;SDS011;73035;43.768;2.230;2024-01-11T12:29:30;10.05;;;5.90;;
83143;SDS011;73035;43.768;2.230;2024-01-11T12:31:56;9.95;;;5.65;;
83143;SDS011;73035;43.768;2.230;2024-01-11T12:34:23;11.00;;;5.60;;
83143;SDS011;73035;43.768;2.230;2024-01-11T12:36:49;10.68;;;5.88;;
83143;SDS011;73035;43.768;2.230;2024-01-11T12:39:16;9.70;;;6.15;;
83143;SDS011;73035;43.768;2.230;2024-01-11T12:41:41;10.20;;;5.85;;
83143;SDS011;73035;43.768;2.230;2024-01-11T12:44:08;8.30;;;5.03;;
83143;SDS011;73035;43.768;2.230;2024-01-11T12:46:33;9.27;;;5.72;;
83143;SDS011;73035;43.768;2.230;2024-01-11T12:48:58;10.38;;;6.55;;
83143;SDS011;73035;43.768;2.230;2024-01-11T12:51:25;8.43;;;4.70;;
83143;SDS011;73035;43.768;2.230;2024-01-11T12:53:51;8.52;;;5.00;;
83143;SDS011;73035;43.768;2.230;2024-01-11T12:56:18;8.60;;;5.30;;
83143;SDS011;73035;43.768;2.230;2024-01-11T12:58:44;9.18;;;5.28;;
83143;SDS011;73035;43.768;2.230;2024-01-11T13:01:11;9.32;;;4.90;;
83143;SDS011;73035;43.768;2.230;2024-01-11T13:03:38;10.02;;;6.20;;
83143;SDS011;73035;43.768;2.230;2024-01-11T13:06:04;8.73;;;5.22;;
83143;SDS011;73035;43.768;2.230;2024-01-11T13:08:33;7.85;;;4.47;;
83143;SDS011;73035;43.768;2.230;2024-01-11T13:11:01;7.93;;;5.05;;
83143;SDS011;73035;43.768;2.230;2024-01-11T13:13:31;8.70;;;5.25;;
83143;SDS011;73035;43.768;2.230;2024-01-11T13:15:57;7.63;;;5.38;;
83143;SDS011;73035;43.768;2.230;2024-01-11T13:18:23;10.02;;;5.30;;
83143;SDS011;73035;43.768;2.230;2024-01-11T13:20:49;8.05;;;5.13;;
83143;SDS011;73035;43.768;2.230;2024-01-11T13:23:18;10.02;;;5.45;;
83143;SDS011;73035;43.768;2.230;2024-01-11T13:25:46;7.68;;;4.95;;
83143;SDS011;73035;43.768;2.230;2024-01-11T13:28:12;7.18;;;4.65;;
83143;SDS011;73035;43.768;2.230;2024-01-11T13:30:38;11.25;;;5.97;;
83143;SDS011;73035;43.768;2.230;2024-01-11T13:33:04;8.90;;;5.70;;
83143;SDS011;73035;43.768;2.230;2024-01-11T13:35:30;9.85;;;6.00;;
83143;SDS011;73035;43.768;2.230;2024-01-11T13:37:55;9.43;;;5.15;;
83143;SDS011;73035;43.768;2.230;2024-01-11T13:40:21;6.93;;;4.88;;
83143;SDS011;73035;43.768;2.230;2024-01-11T13:42:46;9.88;;;5.20;;
83143;SDS011;73035;43.768;2.230;2024-01-11T13:45:11;9.70;;;5.28;;
83143;SDS011;73035;43.768;2.230;2024-01-11T13:47:37;10.65;;;5.30;;
83143;SDS011;73035;43.768;2.230;2024-01-11T13:50:03;8.95;;;5.57;;
83143;SDS011;73035;43.768;2.230;2024-01-11T13:52:29;9.82;;;5.35;;
83143;SDS011;73035;43.768;2.230;2024-01-11T13:54:54;10.23;;;6.15;;
83143;SDS011;73035;43.768;2.230;2024-01-11T13:57:19;8.05;;;5.55;;
83143;SDS011;73035;43.768;2.230;2024-01-11T13:59:45;10.88;;;6.80;;
83143;SDS011;73035;43.768;2.230;2024-01-11T14:02:11;9.68;;;6.32;;
83143;SDS011;73035;43.768;2.230;2024-01-11T14:04:37;9.60;;;5.32;;
83143;SDS011;73035;43.768;2.230;2024-01-11T14:07:02;9.82;;;5.72;;
83143;SDS011;73035;43.768;2.230;2024-01-11T14:09:28;8.23;;;5.50;;
83143;SDS011;73035;43.768;2.230;2024-01-11T14:11:54;8.45;;;5.22;;
83143;SDS011;73035;43.768;2.230;2024-01-11T14:14:19;8.35;;;4.72;;
83143;SDS011;73035;43.768;2.230;2024-01-11T14:16:45;9.52;;;5.22;;
83143;SDS011;73035;43.768;2.230;2024-01-11T14:19:11;7.90;;;4.32;;
83143;SDS011;73035;43.768;2.230;2024-01-11T14:21:37;8.38;;;5.10;;
83143;SDS011;73035;43.768;2.230;2024-01-11T14:24:03;10.93;;;6.07;;
83143;SDS011;73035;43.768;2.230;2024-01-11T14:26:30;8.27;;;4.85;;
83143;SDS011;73035;43.768;2.230;2024-01-11T14:28:58;8.57;;;5.43;;
83143;SDS011;73035;43.768;2.230;2024-01-11T14:31:24;10.90;;;6.45;;
83143;SDS011;73035;43.768;2.230;2024-01-11T14:33:49;10.73;;;5.75;;
83143;SDS011;73035;43.768;2.230;2024-01-11T14:36:15;11.30;;;5.97;;
83143;SDS011;73035;43.768;2.230;2024-01-11T14:38:40;7.82;;;4.55;;
83143;SDS011;73035;43.768;2.230;2024-01-11T14:41:07;9.93;;;5.50;;
83143;SDS011;73035;43.768;2.230;2024-01-11T14:43:34;10.20;;;6.25;;
83143;SDS011;73035;43.768;2.230;2024-01-11T14:46:00;10.25;;;5.20;;
83143;SDS011;73035;43.768;2.230;2024-01-11T14:48:26;10.18;;;5.93;;